sensor_id;sensor_type;location;lat;lon;timestamp;P1;durP1;ratioP1;P2;durP2;ratioP2
72639;SDS011;60683;51.730;8.762;2022-12-07T00:02:01;25.38;;;12.10;;
72639;SDS011;60683;51.730;8.762;2022-12-07T00:04:28;22.55;;;12.20;;
72639;SDS011;60683;51.730;8.762;2022-12-07T00:06:56;28.02;;;12.40;;
72639;SDS011;60683;51.730;8.762;2022-12-07T00:09:23;31.77;;;14.30;;
72639;SDS011;60683;51.730;8.762;2022-12-07T00:11:51;25.70;;;11.95;;
72639;SDS011;60683;51.730;8.762;2022-12-07T00:14:20;33.85;;;17.27;;
72639;SDS011;60683;51.730;8.762;2022-12-07T00:16:48;38.45;;;16.55;;
72639;SDS011;60683;51.730;8.762;2022-12-07T00:19:16;40.33;;;17.23;;
72639;SDS011;60683;51.730;8.762;2022-12-07T00:21:44;28.90;;;13.80;;
72639;SDS011;60683;51.730;8.762;2022-12-07T00:24:11;22.48;;;10.05;;
72639;SDS011;60683;51.730;8.762;2022-12-07T00:26:39;32.10;;;14.32;;
72639;SDS011;60683;51.730;8.762;2022-12-07T00:29:11;35.10;;;14.10;;
72639;SDS011;60683;51.730;8.762;2022-12-07T00:31:43;34.88;;;12.90;;
72639;SDS011;60683;51.730;8.762;2022-12-07T00:34:11;49.13;;;19.00;;
72639;SDS011;60683;51.730;8.762;2022-12-07T00:36:40;35.13;;;14.60;;
72639;SDS011;60683;51.730;8.762;2022-12-07T00:39:09;29.88;;;13.93;;
72639;SDS011;60683;51.730;8.762;2022-12-07T00:41:36;48.65;;;20.55;;
72639;SDS011;60683;51.730;8.762;2022-12-07T00:44:04;46.85;;;18.90;;
72639;SDS011;60683;51.730;8.762;2022-12-07T00:46:32;33.13;;;14.88;;
72639;SDS011;60683;51.730;8.762;2022-12-07T00:49:01;34.65;;;14.90;;
72639;SDS011;60683;51.730;8.762;2022-12-07T00:51:29;50.05;;;20.02;;
72639;SDS011;60683;51.730;8.762;2022-12-07T00:53:56;38.80;;;16.30;;
72639;SDS011;60683;51.730;8.762;2022-12-07T00:56:24;47.13;;;20.08;;
72639;SDS011;60683;51.730;8.762;2022-12-07T00:58:53;29.40;;;15.43;;
72639;SDS011;60683;51.730;8.762;2022-12-07T01:01:22;29.77;;;13.52;;
72639;SDS011;60683;51.730;8.762;2022-12-07T01:03:51;21.15;;;9.63;;
72639;SDS011;60683;51.730;8.762;2022-12-07T01:06:20;42.45;;;18.63;;
72639;SDS011;60683;51.730;8.762;2022-12-07T01:08:48;43.72;;;17.80;;
72639;SDS011;60683;51.730;8.762;2022-12-07T01:11:17;34.33;;;13.65;;
72639;SDS011;60683;51.730;8.762;2022-12-07T01:13:46;54.50;;;21.27;;
72639;SDS011;60683;51.730;8.762;2022-12-07T01:16:15;32.45;;;16.13;;
72639;SDS011;60683;51.730;8.762;2022-12-07T01:18:45;28.20;;;12.55;;
72639;SDS011;60683;51.730;8.762;2022-12-07T01:21:13;37.22;;;15.95;;
72639;SDS011;60683;51.730;8.762;2022-12-07T01:23:44;43.58;;;19.13;;
72639;SDS011;60683;51.730;8.762;2022-12-07T01:26:12;52.03;;;18.38;;
72639;SDS011;60683;51.730;8.762;2022-12-07T01:28:41;44.15;;;19.33;;
72639;SDS011;60683;51.730;8.762;2022-12-07T01:31:09;41.40;;;17.13;;
72639;SDS011;60683;51.730;8.762;2022-12-07T01:33:38;41.63;;;15.32;;
72639;SDS011;60683;51.730;8.762;2022-12-07T01:36:08;35.40;;;16.90;;
72639;SDS011;60683;51.730;8.762;2022-12-07T01:38:41;38.45;;;19.42;;
72639;SDS011;60683;51.730;8.762;2022-12-07T01:41:12;33.70;;;16.00;;
72639;SDS011;60683;51.730;8.762;2022-12-07T01:44:06;49.88;;;17.35;;
72639;SDS011;60683;51.730;8.762;2022-12-07T01:46:36;50.05;;;20.20;;
72639;SDS011;60683;51.730;8.762;2022-12-07T01:49:04;35.17;;;16.58;;
72639;SDS011;60683;51.730;8.762;2022-12-07T01:51:33;37.25;;;15.82;;
72639;SDS011;60683;51.730;8.762;2022-12-07T01:54:01;34.38;;;15.77;;
72639;SDS011;60683;51.730;8.762;2022-12-07T01:56:30;38.85;;;17.58;;
72639;SDS011;60683;51.730;8.762;2022-12-07T01:58:59;43.42;;;19.17;;
72639;SDS011;60683;51.730;8.762;2022-12-07T02:01:27;25.52;;;13.73;;
72639;SDS011;60683;51.730;8.762;2022-12-07T02:03:55;46.72;;;19.80;;
72639;SDS011;60683;51.730;8.762;2022-12-07T02:06:24;37.63;;;15.75;;
72639;SDS011;60683;51.730;8.762;2022-12-07T02:08:53;46.22;;;18.85;;
72639;SDS011;60683;51.730;8.762;2022-12-07T02:11:20;41.17;;;17.38;;
72639;SDS011;60683;51.730;8.762;2022-12-07T02:13:50;41.03;;;16.58;;
72639;SDS011;60683;51.730;8.762;2022-12-07T02:16:23;43.30;;;18.65;;
72639;SDS011;60683;51.730;8.762;2022-12-07T02:18:56;20.33;;;8.38;;
72639;SDS011;60683;51.730;8.762;2022-12-07T02:21:29;38.25;;;16.45;;
72639;SDS011;60683;51.730;8.762;2022-12-07T02:26:55;22.50;;;10.70;;
72639;SDS011;60683;51.730;8.762;2022-12-07T02:29:37;38.88;;;17.38;;
72639;SDS011;60683;51.730;8.762;2022-12-07T02:32:07;24.10;;;12.40;;
72639;SDS011;60683;51.730;8.762;2022-12-07T02:34:41;35.92;;;16.45;;
72639;SDS011;60683;51.730;8.762;2022-12-07T02:37:17;38.00;;;15.98;;
72639;SDS011;60683;51.730;8.762;2022-12-07T02:39:49;34.60;;;14.27;;
72639;SDS011;60683;51.730;8.762;2022-12-07T02:42:19;30.55;;;15.73;;
72639;SDS011;60683;51.730;8.762;2022-12-07T02:44:52;39.03;;;15.03;;
72639;SDS011;60683;51.730;8.762;2022-12-07T02:47:20;31.25;;;14.25;;
72639;SDS011;60683;51.730;8.762;2022-12-07T02:49:48;37.40;;;15.93;;
72639;SDS011;60683;51.730;8.762;2022-12-07T02:52:16;33.28;;;13.65;;
72639;SDS011;60683;51.730;8.762;2022-12-07T02:54:43;29.52;;;12.85;;
72639;SDS011;60683;51.730;8.762;2022-12-07T02:57:25;32.65;;;15.13;;
72639;SDS011;60683;51.730;8.762;2022-12-07T03:00:03;29.77;;;13.30;;
72639;SDS011;60683;51.730;8.762;2022-12-07T03:02:38;20.23;;;11.40;;
72639;SDS011;60683;51.730;8.762;2022-12-07T03:05:13;27.02;;;13.15;;
72639;SDS011;60683;51.730;8.762;2022-12-07T03:07:48;30.23;;;13.20;;
72639;SDS011;60683;51.730;8.762;2022-12-07T03:10:19;30.98;;;13.50;;
72639;SDS011;60683;51.730;8.762;2022-12-07T03:12:53;23.95;;;11.77;;
72639;SDS011;60683;51.730;8.762;2022-12-07T03:15:31;30.40;;;13.73;;
72639;SDS011;60683;51.730;8.762;2022-12-07T03:17:59;23.92;;;11.00;;
72639;SDS011;60683;51.730;8.762;2022-12-07T03:20:29;31.23;;;14.95;;
72639;SDS011;60683;51.730;8.762;2022-12-07T03:22:58;29.80;;;13.82;;
72639;SDS011;60683;51.730;8.762;2022-12-07T03:25:27;19.98;;;9.88;;
72639;SDS011;60683;51.730;8.762;2022-12-07T03:27:55;32.25;;;14.63;;
72639;SDS011;60683;51.730;8.762;2022-12-07T03:30:26;20.35;;;9.63;;
72639;SDS011;60683;51.730;8.762;2022-12-07T03:32:58;28.92;;;13.68;;
72639;SDS011;60683;51.730;8.762;2022-12-07T03:35:28;23.92;;;11.70;;
72639;SDS011;60683;51.730;8.762;2022-12-07T03:37:59;30.17;;;12.85;;
72639;SDS011;60683;51.730;8.762;2022-12-07T03:40:29;20.98;;;9.73;;
72639;SDS011;60683;51.730;8.762;2022-12-07T03:43:01;13.40;;;6.60;;
72639;SDS011;60683;51.730;8.762;2022-12-07T03:45:31;26.20;;;10.60;;
72639;SDS011;60683;51.730;8.762;2022-12-07T03:48:07;21.40;;;11.32;;
72639;SDS011;60683;51.730;8.762;2022-12-07T03:50:38;15.60;;;8.30;;
72639;SDS011;60683;51.730;8.762;2022-12-07T03:53:10;29.02;;;11.70;;
72639;SDS011;60683;51.730;8.762;2022-12-07T03:55:41;20.63;;;11.13;;
72639;SDS011;60683;51.730;8.762;2022-12-07T03:58:11;21.98;;;9.38;;
72639;SDS011;60683;51.730;8.762;2022-12-07T04:00:41;22.13;;;10.25;;
72639;SDS011;60683;51.730;8.762;2022-12-07T04:03:10;17.60;;;7.53;;
72639;SDS011;60683;51.730;8.762;2022-12-07T04:05:38;14.80;;;6.45;;
72639;SDS011;60683;51.730;8.762;2022-12-07T04:08:06;14.07;;;7.60;;
72639;SDS011;60683;51.730;8.762;2022-12-07T04:10:33;17.90;;;7.22;;
72639;SDS011;60683;51.730;8.762;2022-12-07T04:13:02;17.30;;;8.02;;
72639;SDS011;60683;51.730;8.762;2022-12-07T04:15:31;18.23;;;8.23;;
72639;SDS011;60683;51.730;8.762;2022-12-07T04:17:58;20.40;;;8.32;;
72639;SDS011;60683;51.730;8.762;2022-12-07T04:20:28;17.77;;;7.40;;
72639;SDS011;60683;51.730;8.762;2022-12-07T04:22:57;14.55;;;6.45;;
72639;SDS011;60683;51.730;8.762;2022-12-07T04:25:24;15.25;;;6.78;;
72639;SDS011;60683;51.730;8.762;2022-12-07T04:27:54;13.70;;;7.28;;
72639;SDS011;60683;51.730;8.762;2022-12-07T04:30:21;13.95;;;6.43;;
72639;SDS011;60683;51.730;8.762;2022-12-07T04:32:49;10.48;;;5.70;;
72639;SDS011;60683;51.730;8.762;2022-12-07T04:35:16;12.43;;;5.35;;
72639;SDS011;60683;51.730;8.762;2022-12-07T04:37:45;11.82;;;6.07;;
72639;SDS011;60683;51.730;8.762;2022-12-07T04:40:12;15.95;;;5.65;;
72639;SDS011;60683;51.730;8.762;2022-12-07T04:42:40;11.98;;;5.80;;
72639;SDS011;60683;51.730;8.762;2022-12-07T04:45:08;14.85;;;6.38;;
72639;SDS011;60683;51.730;8.762;2022-12-07T04:47:36;14.32;;;5.93;;
72639;SDS011;60683;51.730;8.762;2022-12-07T04:50:04;13.18;;;5.72;;
72639;SDS011;60683;51.730;8.762;2022-12-07T04:52:32;11.50;;;5.93;;
72639;SDS011;60683;51.730;8.762;2022-12-07T04:55:01;9.48;;;4.70;;
72639;SDS011;60683;51.730;8.762;2022-12-07T04:57:29;10.07;;;5.30;;
72639;SDS011;60683;51.730;8.762;2022-12-07T04:59:56;18.33;;;7.32;;
72639;SDS011;60683;51.730;8.762;2022-12-07T05:02:24;10.02;;;4.18;;
72639;SDS011;60683;51.730;8.762;2022-12-07T05:04:51;15.55;;;7.72;;
72639;SDS011;60683;51.730;8.762;2022-12-07T05:07:18;8.10;;;4.60;;
72639;SDS011;60683;51.730;8.762;2022-12-07T05:09:46;12.23;;;5.45;;
72639;SDS011;60683;51.730;8.762;2022-12-07T05:12:14;13.32;;;7.25;;
72639;SDS011;60683;51.730;8.762;2022-12-07T05:14:43;13.98;;;5.75;;
72639;SDS011;60683;51.730;8.762;2022-12-07T05:17:10;14.02;;;6.50;;
72639;SDS011;60683;51.730;8.762;2022-12-07T05:19:38;19.98;;;8.23;;
72639;SDS011;60683;51.730;8.762;2022-12-07T05:22:06;18.55;;;8.52;;
72639;SDS011;60683;51.730;8.762;2022-12-07T05:24:34;19.70;;;6.78;;
72639;SDS011;60683;51.730;8.762;2022-12-07T05:27:01;15.60;;;7.85;;
72639;SDS011;60683;51.730;8.762;2022-12-07T05:29:31;13.05;;;6.13;;
72639;SDS011;60683;51.730;8.762;2022-12-07T05:31:59;13.57;;;6.55;;
72639;SDS011;60683;51.730;8.762;2022-12-07T05:34:26;11.60;;;3.97;;
72639;SDS011;60683;51.730;8.762;2022-12-07T05:36:53;17.52;;;7.72;;
72639;SDS011;60683;51.730;8.762;2022-12-07T05:39:21;17.00;;;8.02;;
72639;SDS011;60683;51.730;8.762;2022-12-07T05:41:48;15.27;;;7.50;;
72639;SDS011;60683;51.730;8.762;2022-12-07T05:44:35;14.10;;;7.32;;
72639;SDS011;60683;51.730;8.762;2022-12-07T05:47:02;11.13;;;7.93;;
72639;SDS011;60683;51.730;8.762;2022-12-07T05:49:30;21.48;;;8.88;;
72639;SDS011;60683;51.730;8.762;2022-12-07T05:51:57;8.43;;;3.65;;
72639;SDS011;60683;51.730;8.762;2022-12-07T05:54:24;13.45;;;7.32;;
72639;SDS011;60683;51.730;8.762;2022-12-07T05:56:52;12.65;;;6.32;;
72639;SDS011;60683;51.730;8.762;2022-12-07T05:59:20;10.38;;;5.90;;
72639;SDS011;60683;51.730;8.762;2022-12-07T06:01:50;11.23;;;6.20;;
72639;SDS011;60683;51.730;8.762;2022-12-07T06:04:19;17.60;;;7.80;;
72639;SDS011;60683;51.730;8.762;2022-12-07T06:06:47;15.95;;;7.18;;
72639;SDS011;60683;51.730;8.762;2022-12-07T06:09:15;17.10;;;6.85;;
72639;SDS011;60683;51.730;8.762;2022-12-07T06:11:42;18.98;;;8.32;;
72639;SDS011;60683;51.730;8.762;2022-12-07T06:14:23;15.85;;;7.07;;
72639;SDS011;60683;51.730;8.762;2022-12-07T06:16:52;13.77;;;6.80;;
72639;SDS011;60683;51.730;8.762;2022-12-07T06:19:19;17.63;;;8.70;;
72639;SDS011;60683;51.730;8.762;2022-12-07T06:21:47;14.77;;;5.95;;
72639;SDS011;60683;51.730;8.762;2022-12-07T06:24:15;12.63;;;6.53;;
72639;SDS011;60683;51.730;8.762;2022-12-07T06:26:43;19.40;;;8.90;;
72639;SDS011;60683;51.730;8.762;2022-12-07T06:29:11;21.58;;;8.38;;
72639;SDS011;60683;51.730;8.762;2022-12-07T06:31:39;23.63;;;8.13;;
72639;SDS011;60683;51.730;8.762;2022-12-07T06:34:08;17.92;;;7.50;;
72639;SDS011;60683;51.730;8.762;2022-12-07T06:36:37;18.25;;;8.65;;
72639;SDS011;60683;51.730;8.762;2022-12-07T06:39:05;19.08;;;8.98;;
72639;SDS011;60683;51.730;8.762;2022-12-07T06:41:34;16.30;;;8.13;;
72639;SDS011;60683;51.730;8.762;2022-12-07T06:44:02;18.30;;;7.63;;
72639;SDS011;60683;51.730;8.762;2022-12-07T06:46:30;14.27;;;6.63;;
72639;SDS011;60683;51.730;8.762;2022-12-07T06:48:57;15.52;;;7.78;;
72639;SDS011;60683;51.730;8.762;2022-12-07T06:51:26;25.90;;;7.50;;
72639;SDS011;60683;51.730;8.762;2022-12-07T06:53:53;16.70;;;7.50;;
72639;SDS011;60683;51.730;8.762;2022-12-07T06:56:22;19.27;;;9.23;;
72639;SDS011;60683;51.730;8.762;2022-12-07T06:58:50;8.02;;;5.00;;
72639;SDS011;60683;51.730;8.762;2022-12-07T07:01:18;18.75;;;8.90;;
72639;SDS011;60683;51.730;8.762;2022-12-07T07:03:46;18.75;;;9.00;;
72639;SDS011;60683;51.730;8.762;2022-12-07T07:06:13;21.55;;;9.73;;
72639;SDS011;60683;51.730;8.762;2022-12-07T07:08:43;15.43;;;6.70;;
72639;SDS011;60683;51.730;8.762;2022-12-07T07:11:10;12.35;;;6.40;;
72639;SDS011;60683;51.730;8.762;2022-12-07T07:13:37;19.05;;;9.13;;
72639;SDS011;60683;51.730;8.762;2022-12-07T07:16:06;18.58;;;9.13;;
72639;SDS011;60683;51.730;8.762;2022-12-07T07:18:34;26.45;;;9.50;;
72639;SDS011;60683;51.730;8.762;2022-12-07T07:21:03;20.20;;;8.00;;
72639;SDS011;60683;51.730;8.762;2022-12-07T07:23:30;11.27;;;4.97;;
72639;SDS011;60683;51.730;8.762;2022-12-07T07:25:59;21.80;;;7.82;;
72639;SDS011;60683;51.730;8.762;2022-12-07T07:28:27;15.63;;;6.93;;
72639;SDS011;60683;51.730;8.762;2022-12-07T07:30:54;14.60;;;7.80;;
72639;SDS011;60683;51.730;8.762;2022-12-07T07:33:22;18.23;;;7.78;;
72639;SDS011;60683;51.730;8.762;2022-12-07T07:35:49;20.23;;;8.77;;
72639;SDS011;60683;51.730;8.762;2022-12-07T07:38:18;12.02;;;5.95;;
72639;SDS011;60683;51.730;8.762;2022-12-07T07:40:46;19.75;;;7.60;;
72639;SDS011;60683;51.730;8.762;2022-12-07T07:43:15;18.05;;;8.75;;
72639;SDS011;60683;51.730;8.762;2022-12-07T07:45:42;12.02;;;5.90;;
72639;SDS011;60683;51.730;8.762;2022-12-07T07:48:11;16.75;;;7.45;;
72639;SDS011;60683;51.730;8.762;2022-12-07T07:50:39;14.27;;;6.03;;
72639;SDS011;60683;51.730;8.762;2022-12-07T07:53:06;23.52;;;8.98;;
72639;SDS011;60683;51.730;8.762;2022-12-07T07:55:34;16.10;;;6.97;;
72639;SDS011;60683;51.730;8.762;2022-12-07T07:58:01;23.27;;;7.65;;
72639;SDS011;60683;51.730;8.762;2022-12-07T08:00:30;18.17;;;7.07;;
72639;SDS011;60683;51.730;8.762;2022-12-07T08:02:58;12.73;;;5.30;;
72639;SDS011;60683;51.730;8.762;2022-12-07T08:05:25;18.15;;;7.30;;
72639;SDS011;60683;51.730;8.762;2022-12-07T08:07:53;16.45;;;6.45;;
72639;SDS011;60683;51.730;8.762;2022-12-07T08:10:21;17.88;;;7.05;;
72639;SDS011;60683;51.730;8.762;2022-12-07T08:12:49;9.27;;;5.80;;
72639;SDS011;60683;51.730;8.762;2022-12-07T08:15:35;15.57;;;7.18;;
72639;SDS011;60683;51.730;8.762;2022-12-07T08:18:04;18.48;;;7.97;;
72639;SDS011;60683;51.730;8.762;2022-12-07T08:20:32;10.55;;;4.25;;
72639;SDS011;60683;51.730;8.762;2022-12-07T08:23:01;13.85;;;7.57;;
72639;SDS011;60683;51.730;8.762;2022-12-07T08:25:29;11.05;;;5.85;;
72639;SDS011;60683;51.730;8.762;2022-12-07T08:27:56;18.58;;;7.90;;
72639;SDS011;60683;51.730;8.762;2022-12-07T08:30:24;16.30;;;7.30;;
72639;SDS011;60683;51.730;8.762;2022-12-07T08:32:53;11.80;;;6.20;;
72639;SDS011;60683;51.730;8.762;2022-12-07T08:35:21;8.85;;;4.43;;
72639;SDS011;60683;51.730;8.762;2022-12-07T08:37:50;15.65;;;7.03;;
72639;SDS011;60683;51.730;8.762;2022-12-07T08:40:18;9.93;;;4.15;;
72639;SDS011;60683;51.730;8.762;2022-12-07T08:42:50;13.57;;;6.07;;
72639;SDS011;60683;51.730;8.762;2022-12-07T08:45:17;13.90;;;6.68;;
72639;SDS011;60683;51.730;8.762;2022-12-07T08:47:47;11.38;;;6.22;;
72639;SDS011;60683;51.730;8.762;2022-12-07T08:50:17;14.70;;;7.10;;
72639;SDS011;60683;51.730;8.762;2022-12-07T08:52:44;10.50;;;5.05;;
72639;SDS011;60683;51.730;8.762;2022-12-07T08:55:15;12.32;;;5.57;;
72639;SDS011;60683;51.730;8.762;2022-12-07T08:57:43;15.05;;;6.55;;
72639;SDS011;60683;51.730;8.762;2022-12-07T09:00:10;16.05;;;6.60;;
72639;SDS011;60683;51.730;8.762;2022-12-07T09:02:39;12.18;;;6.20;;
72639;SDS011;60683;51.730;8.762;2022-12-07T09:05:07;7.97;;;5.20;;
72639;SDS011;60683;51.730;8.762;2022-12-07T09:07:37;14.50;;;6.45;;
72639;SDS011;60683;51.730;8.762;2022-12-07T09:10:05;14.13;;;6.30;;
72639;SDS011;60683;51.730;8.762;2022-12-07T09:12:33;3.63;;;2.33;;
72639;SDS011;60683;51.730;8.762;2022-12-07T09:15:01;7.93;;;3.55;;
72639;SDS011;60683;51.730;8.762;2022-12-07T09:17:31;11.10;;;5.78;;
72639;SDS011;60683;51.730;8.762;2022-12-07T09:20:01;10.45;;;5.43;;
72639;SDS011;60683;51.730;8.762;2022-12-07T09:22:28;10.57;;;4.95;;
72639;SDS011;60683;51.730;8.762;2022-12-07T09:24:58;6.68;;;3.05;;
72639;SDS011;60683;51.730;8.762;2022-12-07T09:27:29;10.98;;;4.93;;
72639;SDS011;60683;51.730;8.762;2022-12-07T09:29:56;13.10;;;5.55;;
72639;SDS011;60683;51.730;8.762;2022-12-07T09:32:26;8.75;;;4.38;;
72639;SDS011;60683;51.730;8.762;2022-12-07T09:34:53;12.40;;;5.25;;
72639;SDS011;60683;51.730;8.762;2022-12-07T09:37:21;10.55;;;5.82;;
72639;SDS011;60683;51.730;8.762;2022-12-07T09:39:48;12.48;;;5.00;;
72639;SDS011;60683;51.730;8.762;2022-12-07T09:42:23;15.77;;;6.07;;
72639;SDS011;60683;51.730;8.762;2022-12-07T09:44:55;7.13;;;3.70;;
72639;SDS011;60683;51.730;8.762;2022-12-07T09:47:24;10.45;;;5.47;;
72639;SDS011;60683;51.730;8.762;2022-12-07T09:49:51;11.13;;;4.80;;
72639;SDS011;60683;51.730;8.762;2022-12-07T09:52:20;7.40;;;3.72;;
72639;SDS011;60683;51.730;8.762;2022-12-07T09:54:53;12.57;;;4.70;;
72639;SDS011;60683;51.730;8.762;2022-12-07T09:57:25;12.48;;;4.25;;
72639;SDS011;60683;51.730;8.762;2022-12-07T09:59:56;13.40;;;4.72;;
72639;SDS011;60683;51.730;8.762;2022-12-07T10:02:33;11.60;;;5.30;;
72639;SDS011;60683;51.730;8.762;2022-12-07T10:05:03;7.30;;;2.78;;
72639;SDS011;60683;51.730;8.762;2022-12-07T10:07:31;9.82;;;4.45;;
72639;SDS011;60683;51.730;8.762;2022-12-07T10:09:59;8.57;;;3.55;;
72639;SDS011;60683;51.730;8.762;2022-12-07T10:12:28;10.10;;;4.65;;
72639;SDS011;60683;51.730;8.762;2022-12-07T10:14:59;8.88;;;4.13;;
72639;SDS011;60683;51.730;8.762;2022-12-07T10:17:29;8.80;;;3.60;;
72639;SDS011;60683;51.730;8.762;2022-12-07T10:20:08;9.27;;;3.55;;
72639;SDS011;60683;51.730;8.762;2022-12-07T10:22:53;9.95;;;4.28;;
72639;SDS011;60683;51.730;8.762;2022-12-07T10:25:26;5.82;;;3.35;;
72639;SDS011;60683;51.730;8.762;2022-12-07T10:28:00;9.73;;;4.15;;
72639;SDS011;60683;51.730;8.762;2022-12-07T10:30:29;8.60;;;4.45;;
72639;SDS011;60683;51.730;8.762;2022-12-07T10:32:59;10.10;;;3.78;;
72639;SDS011;60683;51.730;8.762;2022-12-07T10:35:28;8.77;;;4.03;;
72639;SDS011;60683;51.730;8.762;2022-12-07T10:37:57;10.73;;;5.32;;
72639;SDS011;60683;51.730;8.762;2022-12-07T10:40:27;9.30;;;4.63;;
72639;SDS011;60683;51.730;8.762;2022-12-07T10:43:02;10.45;;;4.45;;
72639;SDS011;60683;51.730;8.762;2022-12-07T10:45:32;9.35;;;3.83;;
72639;SDS011;60683;51.730;8.762;2022-12-07T10:48:02;6.80;;;2.97;;
72639;SDS011;60683;51.730;8.762;2022-12-07T10:50:41;7.70;;;3.25;;
72639;SDS011;60683;51.730;8.762;2022-12-07T10:53:18;7.05;;;3.08;;
72639;SDS011;60683;51.730;8.762;2022-12-07T10:55:56;9.95;;;4.68;;
72639;SDS011;60683;51.730;8.762;2022-12-07T10:58:43;6.07;;;3.70;;
72639;SDS011;60683;51.730;8.762;2022-12-07T11:01:22;8.07;;;3.67;;
72639;SDS011;60683;51.730;8.762;2022-12-07T11:03:56;6.53;;;5.10;;
72639;SDS011;60683;51.730;8.762;2022-12-07T11:06:37;7.65;;;4.15;;
72639;SDS011;60683;51.730;8.762;2022-12-07T11:09:16;7.15;;;3.65;;
72639;SDS011;60683;51.730;8.762;2022-12-07T11:12:09;4.32;;;2.80;;
72639;SDS011;60683;51.730;8.762;2022-12-07T11:14:44;8.27;;;3.67;;
72639;SDS011;60683;51.730;8.762;2022-12-07T11:17:20;11.40;;;4.38;;
72639;SDS011;60683;51.730;8.762;2022-12-07T11:19:55;9.40;;;4.05;;
72639;SDS011;60683;51.730;8.762;2022-12-07T11:22:32;9.30;;;3.58;;
72639;SDS011;60683;51.730;8.762;2022-12-07T11:25:13;9.30;;;4.65;;
72639;SDS011;60683;51.730;8.762;2022-12-07T11:27:47;8.50;;;3.97;;
72639;SDS011;60683;51.730;8.762;2022-12-07T11:30:20;7.82;;;3.92;;
72639;SDS011;60683;51.730;8.762;2022-12-07T11:32:53;10.68;;;4.95;;
72639;SDS011;60683;51.730;8.762;2022-12-07T11:35:30;11.77;;;3.50;;
72639;SDS011;60683;51.730;8.762;2022-12-07T11:38:08;4.55;;;2.22;;
72639;SDS011;60683;51.730;8.762;2022-12-07T11:40:39;9.60;;;3.83;;
72639;SDS011;60683;51.730;8.762;2022-12-07T11:43:11;6.78;;;3.40;;
72639;SDS011;60683;51.730;8.762;2022-12-07T11:45:46;6.68;;;3.08;;
72639;SDS011;60683;51.730;8.762;2022-12-07T11:48:16;13.15;;;4.65;;
72639;SDS011;60683;51.730;8.762;2022-12-07T11:50:48;8.80;;;3.72;;
72639;SDS011;60683;51.730;8.762;2022-12-07T11:53:20;10.07;;;4.38;;
72639;SDS011;60683;51.730;8.762;2022-12-07T11:55:49;8.43;;;4.47;;
72639;SDS011;60683;51.730;8.762;2022-12-07T11:58:27;7.07;;;3.20;;
72639;SDS011;60683;51.730;8.762;2022-12-07T12:01:08;6.15;;;3.03;;
72639;SDS011;60683;51.730;8.762;2022-12-07T12:03:42;4.53;;;2.22;;
72639;SDS011;60683;51.730;8.762;2022-12-07T12:06:11;5.05;;;2.45;;
72639;SDS011;60683;51.730;8.762;2022-12-07T12:08:40;7.00;;;3.20;;
72639;SDS011;60683;51.730;8.762;2022-12-07T12:11:14;6.18;;;3.65;;
72639;SDS011;60683;51.730;8.762;2022-12-07T12:13:56;9.27;;;3.85;;
72639;SDS011;60683;51.730;8.762;2022-12-07T12:16:52;8.85;;;3.33;;
72639;SDS011;60683;51.730;8.762;2022-12-07T12:19:32;5.75;;;3.40;;
72639;SDS011;60683;51.730;8.762;2022-12-07T12:22:06;10.50;;;3.90;;
72639;SDS011;60683;51.730;8.762;2022-12-07T12:24:38;12.73;;;3.40;;
72639;SDS011;60683;51.730;8.762;2022-12-07T12:27:07;8.05;;;3.65;;
72639;SDS011;60683;51.730;8.762;2022-12-07T12:29:37;7.93;;;3.90;;
72639;SDS011;60683;51.730;8.762;2022-12-07T12:32:10;9.27;;;4.20;;
72639;SDS011;60683;51.730;8.762;2022-12-07T12:34:41;6.05;;;2.33;;
72639;SDS011;60683;51.730;8.762;2022-12-07T12:37:43;6.72;;;2.97;;
72639;SDS011;60683;51.730;8.762;2022-12-07T12:55:02;2.75;;;1.63;;
72639;SDS011;60683;51.730;8.762;2022-12-07T12:57:39;4.63;;;2.13;;
72639;SDS011;60683;51.730;8.762;2022-12-07T13:00:15;10.77;;;2.50;;
72639;SDS011;60683;51.730;8.762;2022-12-07T13:02:47;5.18;;;2.45;;
72639;SDS011;60683;51.730;8.762;2022-12-07T13:05:20;5.63;;;2.97;;
72639;SDS011;60683;51.730;8.762;2022-12-07T13:07:56;4.57;;;2.42;;
72639;SDS011;60683;51.730;8.762;2022-12-07T13:13:30;8.18;;;2.30;;
72639;SDS011;60683;51.730;8.762;2022-12-07T13:22:40;5.43;;;2.25;;
72639;SDS011;60683;51.730;8.762;2022-12-07T13:25:12;3.45;;;1.95;;
72639;SDS011;60683;51.730;8.762;2022-12-07T13:27:47;5.40;;;1.75;;
72639;SDS011;60683;51.730;8.762;2022-12-07T13:30:19;5.22;;;2.47;;
72639;SDS011;60683;51.730;8.762;2022-12-07T13:32:51;3.50;;;1.50;;
72639;SDS011;60683;51.730;8.762;2022-12-07T13:35:26;6.35;;;3.20;;
72639;SDS011;60683;51.730;8.762;2022-12-07T13:37:57;4.72;;;1.85;;
72639;SDS011;60683;51.730;8.762;2022-12-07T13:40:25;5.07;;;2.08;;
72639;SDS011;60683;51.730;8.762;2022-12-07T13:42:58;4.45;;;2.42;;
72639;SDS011;60683;51.730;8.762;2022-12-07T13:45:27;5.38;;;1.88;;
72639;SDS011;60683;51.730;8.762;2022-12-07T13:48:20;5.03;;;2.05;;
72639;SDS011;60683;51.730;8.762;2022-12-07T13:50:54;5.68;;;2.38;;
72639;SDS011;60683;51.730;8.762;2022-12-07T13:53:23;6.07;;;1.80;;
72639;SDS011;60683;51.730;8.762;2022-12-07T13:55:54;6.78;;;2.88;;
72639;SDS011;60683;51.730;8.762;2022-12-07T13:58:21;9.13;;;2.70;;
72639;SDS011;60683;51.730;8.762;2022-12-07T14:00:49;6.85;;;2.33;;
72639;SDS011;60683;51.730;8.762;2022-12-07T14:03:30;12.32;;;1.85;;
72639;SDS011;60683;51.730;8.762;2022-12-07T14:06:03;3.80;;;1.80;;
72639;SDS011;60683;51.730;8.762;2022-12-07T14:08:34;6.38;;;2.58;;
72639;SDS011;60683;51.730;8.762;2022-12-07T14:11:02;6.07;;;1.83;;
72639;SDS011;60683;51.730;8.762;2022-12-07T14:13:30;4.15;;;1.88;;
72639;SDS011;60683;51.730;8.762;2022-12-07T14:16:00;8.35;;;3.10;;
72639;SDS011;60683;51.730;8.762;2022-12-07T14:18:29;6.15;;;1.60;;
72639;SDS011;60683;51.730;8.762;2022-12-07T14:21:05;4.40;;;1.90;;
72639;SDS011;60683;51.730;8.762;2022-12-07T14:23:35;7.38;;;2.22;;
72639;SDS011;60683;51.730;8.762;2022-12-07T14:26:07;4.80;;;1.88;;
72639;SDS011;60683;51.730;8.762;2022-12-07T14:28:36;6.10;;;2.60;;
72639;SDS011;60683;51.730;8.762;2022-12-07T14:31:07;4.07;;;2.05;;
72639;SDS011;60683;51.730;8.762;2022-12-07T14:33:37;3.95;;;2.08;;
72639;SDS011;60683;51.730;8.762;2022-12-07T14:36:05;5.00;;;1.60;;
72639;SDS011;60683;51.730;8.762;2022-12-07T14:38:37;5.78;;;2.25;;
72639;SDS011;60683;51.730;8.762;2022-12-07T14:43:54;6.00;;;1.73;;
72639;SDS011;60683;51.730;8.762;2022-12-07T14:46:22;4.07;;;1.70;;
72639;SDS011;60683;51.730;8.762;2022-12-07T14:48:49;3.35;;;1.33;;
72639;SDS011;60683;51.730;8.762;2022-12-07T14:51:17;2.00;;;0.98;;
72639;SDS011;60683;51.730;8.762;2022-12-07T14:53:48;2.67;;;1.30;;
72639;SDS011;60683;51.730;8.762;2022-12-07T14:56:16;7.72;;;2.17;;
72639;SDS011;60683;51.730;8.762;2022-12-07T14:58:44;4.80;;;1.50;;
72639;SDS011;60683;51.730;8.762;2022-12-07T15:01:14;3.08;;;1.23;;
72639;SDS011;60683;51.730;8.762;2022-12-07T15:03:41;4.25;;;1.88;;
72639;SDS011;60683;51.730;8.762;2022-12-07T15:06:13;2.63;;;0.88;;
72639;SDS011;60683;51.730;8.762;2022-12-07T15:08:41;3.50;;;1.42;;
72639;SDS011;60683;51.730;8.762;2022-12-07T15:11:12;2.72;;;1.27;;
72639;SDS011;60683;51.730;8.762;2022-12-07T15:13:40;5.63;;;1.77;;
72639;SDS011;60683;51.730;8.762;2022-12-07T15:16:25;7.32;;;1.60;;
72639;SDS011;60683;51.730;8.762;2022-12-07T15:18:52;3.35;;;1.60;;
72639;SDS011;60683;51.730;8.762;2022-12-07T15:21:20;3.45;;;1.77;;
72639;SDS011;60683;51.730;8.762;2022-12-07T15:23:47;3.85;;;1.60;;
72639;SDS011;60683;51.730;8.762;2022-12-07T15:26:18;2.85;;;1.52;;